Terminal Aerodrome Forecast
Issued by NWS Quad Cities IA IL

Home | Current Version | Previous Version | Text Only | Print | Product List | Glossary On
Versions: 1 2 3 4 5 6 7 8 9 10 11 12 13 14 15 16 17 18 19 20 21 22
000
FTUS43 KDVN 151500 AAB
TAFDBQ
TAF AMD
KDBQ 151539Z 1516/1612 15013KT 1/2SM FG VV002
      TEMPO 1516/1518 2SM BR OVC004
     FM151800 13010KT 3SM -SHRA BR OVC007
     FM160000 10006KT 2SM -RA BR OVC006
     FM160700 34007KT 2SM -RA BR OVC005=

USA.gov is the U.S. government's official web portal to all federal, state and local government web resources and services.